Time;durP1;ratioP1;P1;durP2;ratioP2;P2;SDS_P1;SDS_P2;PMS_P1;PMS_P2;Temp;Humidity;BMP_temperature;BMP_pressure;BME280_temperature;BME280_humidity;BME280_pressure;Samples;Min_cycle;Max_cycle;Signal;HPM_P1;HPM_P2
2022/02/13 00:01:20;;;;;;;9.27;4.68;;;;;;;;;;5096201;28;20056;-73
2022/02/13 00:03:46;;;;;;;8.73;4.60;;;;;;;;;;5096045;28;20048;-73
2022/02/13 00:06:12;;;;;;;7.30;3.72;;;;;;;;;;5096110;28;20051;-73
2022/02/13 00:08:39;;;;;;;8.77;4.25;;;;;;;;;;5080814;28;20085;-73
2022/02/13 00:11:05;;;;;;;8.75;4.30;;;;;;;;;;5075632;28;20033;-73
2022/02/13 00:13:31;;;;;;;10.70;3.97;;;;;;;;;;5075157;28;20037;-73
2022/02/13 00:15:57;;;;;;;10.18;4.20;;;;;;;;;;5075581;28;20024;-73
2022/02/13 00:18:23;;;;;;;8.35;3.75;;;;;;;;;;5084005;28;20027;-73
2022/02/13 00:20:50;;;;;;;6.50;3.60;;;;;;;;;;5095952;28;20035;-73
2022/02/13 00:23:16;;;;;;;7.78;3.95;;;;;;;;;;5095518;28;20048;-73
2022/02/13 00:25:43;;;;;;;6.65;3.60;;;;;;;;;;5095431;28;20032;-73
2022/02/13 00:28:12;;;;;;;10.63;4.53;;;;;;;;;;5095581;28;20024;-73
2022/02/13 00:30:38;;;;;;;9.10;4.15;;;;;;;;;;5095650;28;20036;-73
2022/02/13 00:33:04;;;;;;;10.30;4.70;;;;;;;;;;5095484;28;20429;-73
2022/02/13 00:35:31;;;;;;;8.68;4.05;;;;;;;;;;5095239;28;20032;-73
2022/02/13 00:37:57;;;;;;;9.05;3.70;;;;;;;;;;5095358;28;20099;-73
2022/02/13 00:40:23;;;;;;;8.85;3.72;;;;;;;;;;5095768;28;20363;-73
2022/02/13 00:42:49;;;;;;;9.80;3.63;;;;;;;;;;5062920;28;20034;-73
2022/02/13 00:45:15;;;;;;;10.55;3.95;;;;;;;;;;5075140;28;20028;-73
2022/02/13 00:47:41;;;;;;;8.90;3.92;;;;;;;;;;5074176;28;20460;-73
2022/02/13 00:50:07;;;;;;;10.35;4.28;;;;;;;;;;5074990;28;20107;-73
2022/02/13 00:52:33;;;;;;;7.55;3.88;;;;;;;;;;5056831;28;20027;-73
2022/02/13 00:55:00;;;;;;;7.25;3.30;;;;;;;;;;5074974;28;20435;-73
2022/02/13 00:57:27;;;;;;;9.68;3.90;;;;;;;;;;5074709;28;20460;-73
2022/02/13 00:59:53;;;;;;;7.63;3.30;;;;;;;;;;5075045;28;20514;-73
2022/02/13 01:02:19;;;;;;;8.63;4.07;;;;;;;;;;5074732;28;20433;-73
2022/02/13 01:04:45;;;;;;;8.95;3.67;;;;;;;;;;5074535;28;20053;-73
2022/02/13 01:07:11;;;;;;;7.88;3.55;;;;;;;;;;5074538;28;20031;-73
2022/02/13 01:09:37;;;;;;;8.38;3.40;;;;;;;;;;5075088;28;20111;-73
2022/02/13 01:12:03;;;;;;;10.27;4.10;;;;;;;;;;5056433;28;20502;-73
2022/02/13 01:14:29;;;;;;;9.00;3.50;;;;;;;;;;5074427;28;20031;-73
2022/02/13 01:16:55;;;;;;;6.65;3.78;;;;;;;;;;5074427;28;20086;-73
2022/02/13 01:19:21;;;;;;;8.60;3.45;;;;;;;;;;5076092;28;20025;-73
2022/02/13 01:21:48;;;;;;;8.27;3.40;;;;;;;;;;5074893;28;20536;-73
2022/02/13 01:24:14;;;;;;;9.07;3.78;;;;;;;;;;5074522;28;20540;-73
2022/02/13 01:26:40;;;;;;;7.72;3.83;;;;;;;;;;5074320;28;20619;-73
2022/02/13 01:29:06;;;;;;;9.70;3.53;;;;;;;;;;5056071;28;20145;-73
2022/02/13 01:31:36;;;;;;;7.90;3.88;;;;;;;;;;5074314;28;20521;-73
2022/02/13 01:34:02;;;;;;;9.60;3.08;;;;;;;;;;5074042;28;20027;-73
2022/02/13 01:36:28;;;;;;;10.88;3.47;;;;;;;;;;5073724;28;20024;-73
2022/02/13 01:38:54;;;;;;;10.93;3.97;;;;;;;;;;5074100;28;20035;-73
2022/02/13 01:41:20;;;;;;;6.88;3.88;;;;;;;;;;5075842;28;20433;-73
2022/02/13 01:43:46;;;;;;;6.95;3.67;;;;;;;;;;5094169;28;20110;-73
2022/02/13 01:46:12;;;;;;;7.38;3.38;;;;;;;;;;5094433;28;20020;-73
2022/02/13 01:48:38;;;;;;;10.30;3.80;;;;;;;;;;5093528;28;20111;-73
2022/02/13 01:51:05;;;;;;;6.80;3.35;;;;;;;;;;5076950;28;20032;-73
2022/02/13 01:53:31;;;;;;;10.27;3.80;;;;;;;;;;5053938;28;20548;-73
2022/02/13 01:55:57;;;;;;;9.10;3.55;;;;;;;;;;5054124;28;20112;-73
2022/02/13 01:58:23;;;;;;;8.50;3.45;;;;;;;;;;5053537;28;20028;-73
2022/02/13 02:00:49;;;;;;;11.48;3.97;;;;;;;;;;5054391;28;20021;-73
2022/02/13 02:03:15;;;;;;;6.75;3.42;;;;;;;;;;5035487;28;20052;-73
2022/02/13 02:05:42;;;;;;;6.85;3.22;;;;;;;;;;5053762;28;20558;-73
2022/02/13 02:08:09;;;;;;;9.13;3.35;;;;;;;;;;5075237;28;20028;-73
2022/02/13 02:10:36;;;;;;;8.30;3.70;;;;;;;;;;5093787;28;20026;-73
2022/02/13 02:13:02;;;;;;;8.50;3.95;;;;;;;;;;5093608;28;20036;-73
2022/02/13 02:15:28;;;;;;;9.18;3.67;;;;;;;;;;5093825;28;20430;-73
2022/02/13 02:17:54;;;;;;;8.93;2.97;;;;;;;;;;5088968;28;20390;-73
2022/02/13 02:20:20;;;;;;;9.77;3.42;;;;;;;;;;5072480;28;20025;-73
2022/02/13 02:22:50;;;;;;;8.05;3.50;;;;;;;;;;5072699;28;20074;-74
2022/02/13 02:25:16;;;;;;;9.60;3.30;;;;;;;;;;5054999;28;20067;-73
2022/02/13 02:27:42;;;;;;;9.38;3.92;;;;;;;;;;5072940;28;20039;-73
2022/02/13 02:30:09;;;;;;;7.30;3.50;;;;;;;;;;5072848;28;20025;-74
2022/02/13 02:32:35;;;;;;;7.13;3.15;;;;;;;;;;5073419;28;20497;-73
2022/02/13 02:35:03;;;;;;;6.55;2.83;;;;;;;;;;5072705;28;20024;-73
2022/02/13 02:37:29;;;;;;;9.43;3.28;;;;;;;;;;5072822;28;20028;-73
2022/02/13 02:39:55;;;;;;;7.55;3.45;;;;;;;;;;5072688;28;20020;-73
2022/02/13 02:42:21;;;;;;;8.93;3.70;;;;;;;;;;5072783;28;20051;-73
2022/02/13 02:44:47;;;;;;;11.13;3.35;;;;;;;;;;5072973;28;20430;-73
2022/02/13 02:47:14;;;;;;;7.53;2.92;;;;;;;;;;5072777;28;20185;-73
2022/02/13 02:49:40;;;;;;;10.55;3.50;;;;;;;;;;5072277;28;20024;-73
2022/02/13 02:52:06;;;;;;;8.18;3.50;;;;;;;;;;5072652;28;20035;-73
2022/02/13 02:54:32;;;;;;;9.13;3.17;;;;;;;;;;5054291;28;20020;-73
2022/02/13 02:56:58;;;;;;;7.15;3.03;;;;;;;;;;5072743;28;20025;-73
2022/02/13 02:59:25;;;;;;;7.95;3.25;;;;;;;;;;5072321;28;20103;-73
2022/02/13 03:01:51;;;;;;;7.10;3.45;;;;;;;;;;5072420;28;20020;-73
2022/02/13 03:04:17;;;;;;;10.75;4.05;;;;;;;;;;5072080;28;20063;-73
2022/02/13 03:06:43;;;;;;;9.18;3.35;;;;;;;;;;5054619;28;20020;-73
2022/02/13 03:09:12;;;;;;;7.05;3.33;;;;;;;;;;5091358;28;20367;-73
2022/02/13 03:11:38;;;;;;;9.32;3.65;;;;;;;;;;5092748;28;20028;-73
2022/02/13 03:14:04;;;;;;;7.22;3.22;;;;;;;;;;5092821;28;20401;-73
2022/02/13 03:16:30;;;;;;;8.48;2.80;;;;;;;;;;5075019;28;20124;-73
2022/02/13 03:18:56;;;;;;;9.48;3.28;;;;;;;;;;5078959;28;20024;-73
2022/02/13 03:21:22;;;;;;;10.63;3.45;;;;;;;;;;5072308;28;20524;-73
2022/02/13 03:23:48;;;;;;;9.32;3.70;;;;;;;;;;5054351;28;20073;-73
2022/02/13 03:26:14;;;;;;;11.15;3.70;;;;;;;;;;5071966;28;20032;-73
2022/02/13 03:28:41;;;;;;;9.23;3.28;;;;;;;;;;5073527;28;20051;-72
2022/02/13 03:31:07;;;;;;;8.85;3.58;;;;;;;;;;5074530;28;20082;-72
2022/02/13 03:33:33;;;;;;;7.18;3.25;;;;;;;;;;5073559;28;20095;-72
2022/02/13 03:35:59;;;;;;;8.60;3.10;;;;;;;;;;5056369;28;20043;-72
2022/02/13 03:38:25;;;;;;;10.45;3.45;;;;;;;;;;5074317;28;20025;-72
2022/02/13 03:40:52;;;;;;;7.10;3.35;;;;;;;;;;5074136;28;20028;-72
2022/02/13 03:43:18;;;;;;;7.47;3.00;;;;;;;;;;5074194;28;20107;-72
2022/02/13 03:45:44;;;;;;;9.48;3.13;;;;;;;;;;5056302;28;20034;-72
2022/02/13 03:48:10;;;;;;;14.15;3.70;;;;;;;;;;5073904;28;20032;-72
2022/02/13 03:50:36;;;;;;;7.05;2.92;;;;;;;;;;5074436;28;20052;-72
2022/02/13 03:53:03;;;;;;;10.18;3.40;;;;;;;;;;5074176;28;20027;-72
2022/02/13 03:55:30;;;;;;;8.65;2.92;;;;;;;;;;5074211;28;20033;-72
2022/02/13 03:57:56;;;;;;;7.30;2.83;;;;;;;;;;5074601;28;20028;-72
2022/02/13 04:00:22;;;;;;;7.10;3.25;;;;;;;;;;5073517;28;20035;-72
2022/02/13 04:02:48;;;;;;;8.52;3.22;;;;;;;;;;5074337;28;20504;-72
2022/02/13 04:05:15;;;;;;;8.88;3.75;;;;;;;;;;5055853;28;20048;-72
2022/02/13 04:07:41;;;;;;;8.80;3.13;;;;;;;;;;5081107;28;20036;-72
2022/02/13 04:10:08;;;;;;;7.72;3.25;;;;;;;;;;5076412;28;20073;-72
2022/02/13 04:12:34;;;;;;;7.43;3.03;;;;;;;;;;5093935;28;20050;-72
2022/02/13 04:15:01;;;;;;;9.52;3.33;;;;;;;;;;5093853;28;20055;-72
2022/02/13 04:17:27;;;;;;;9.93;3.38;;;;;;;;;;5093425;28;20016;-72
2022/02/13 04:19:53;;;;;;;7.22;2.83;;;;;;;;;;5074006;28;20433;-72
2022/02/13 04:22:19;;;;;;;8.50;2.95;;;;;;;;;;5074510;28;20021;-72
2022/02/13 04:24:45;;;;;;;7.38;2.95;;;;;;;;;;5073963;28;20033;-72
2022/02/13 04:27:11;;;;;;;9.57;3.95;;;;;;;;;;5074147;28;20032;-72
2022/02/13 04:29:37;;;;;;;10.13;2.88;;;;;;;;;;5073991;28;20124;-72
2022/02/13 04:32:04;;;;;;;10.00;3.33;;;;;;;;;;5073482;28;20029;-72
2022/02/13 04:34:30;;;;;;;6.90;2.80;;;;;;;;;;5073212;28;20029;-72
2022/02/13 04:36:56;;;;;;;8.48;3.30;;;;;;;;;;5074164;28;20024;-72
2022/02/13 04:39:22;;;;;;;9.25;3.28;;;;;;;;;;5074055;28;20048;-72
2022/02/13 04:41:48;;;;;;;9.13;3.33;;;;;;;;;;5078515;28;20050;-72
2022/02/13 04:44:14;;;;;;;7.28;3.30;;;;;;;;;;5096111;28;20050;-72
2022/02/13 04:46:40;;;;;;;10.18;2.65;;;;;;;;;;5097186;28;20028;-72
2022/02/13 04:49:06;;;;;;;7.57;3.05;;;;;;;;;;5097599;28;20059;-72
2022/02/13 04:51:32;;;;;;;8.82;3.20;;;;;;;;;;5097243;28;20028;-72
2022/02/13 04:53:58;;;;;;;6.10;2.90;;;;;;;;;;5097598;28;20024;-72
2022/02/13 04:56:24;;;;;;;7.78;2.72;;;;;;;;;;5098112;28;20043;-72
2022/02/13 04:58:51;;;;;;;6.97;3.22;;;;;;;;;;5097809;28;20032;-72
2022/02/13 05:01:17;;;;;;;9.65;2.92;;;;;;;;;;5097551;28;20020;-72
2022/02/13 05:03:43;;;;;;;8.15;2.50;;;;;;;;;;5091850;28;20072;-72
2022/02/13 05:06:09;;;;;;;10.07;2.92;;;;;;;;;;5077285;28;20025;-72
2022/02/13 05:08:35;;;;;;;8.02;3.10;;;;;;;;;;5076802;28;20052;-72
2022/02/13 05:11:01;;;;;;;8.10;3.00;;;;;;;;;;5076737;28;20031;-72
2022/02/13 05:13:28;;;;;;;8.00;2.92;;;;;;;;;;5076427;28;20552;-72
2022/02/13 05:15:54;;;;;;;6.78;2.85;;;;;;;;;;5058973;28;20024;-72
2022/02/13 05:18:20;;;;;;;5.70;2.70;;;;;;;;;;5084806;28;20051;-72
2022/02/13 05:20:46;;;;;;;7.53;2.50;;;;;;;;;;5096960;28;20020;-72
2022/02/13 05:23:12;;;;;;;7.57;2.85;;;;;;;;;;5097217;28;20031;-72
2022/02/13 05:25:38;;;;;;;7.45;2.85;;;;;;;;;;5077661;28;20029;-72
2022/02/13 05:28:04;;;;;;;6.45;3.28;;;;;;;;;;5056504;28;20033;-72
2022/02/13 05:30:30;;;;;;;9.18;3.15;;;;;;;;;;5055900;28;20154;-75
2022/02/13 05:32:56;;;;;;;6.82;3.00;;;;;;;;;;5054511;28;20055;-75
2022/02/13 05:35:22;;;;;;;8.40;2.90;;;;;;;;;;5054282;28;20025;-75
2022/02/13 05:37:49;;;;;;;6.57;2.78;;;;;;;;;;5073415;28;20029;-75
2022/02/13 05:40:16;;;;;;;7.32;2.70;;;;;;;;;;5074364;28;20025;-75
2022/02/13 05:45:45;;;;;;;7.75;2.80;;;;;;;;;;5095361;28;20030;-75
2022/02/13 05:48:15;;;;;;;8.13;2.83;;;;;;;;;;5094612;28;20028;-75
2022/02/13 05:50:41;;;;;;;10.02;3.10;;;;;;;;;;5076059;28;20166;-75
2022/02/13 05:53:08;;;;;;;8.65;2.85;;;;;;;;;;5094408;28;20036;-75
2022/02/13 05:55:34;;;;;;;9.05;3.10;;;;;;;;;;5093948;28;20359;-75
2022/02/13 05:58:00;;;;;;;8.63;3.13;;;;;;;;;;5076003;28;20055;-75
2022/02/13 06:00:26;;;;;;;5.95;2.83;;;;;;;;;;5076120;28;20016;-75
2022/02/13 06:02:52;;;;;;;7.75;2.78;;;;;;;;;;5093571;28;20152;-75
2022/02/13 06:05:18;;;;;;;8.40;2.65;;;;;;;;;;5075902;28;20035;-75
2022/02/13 06:07:44;;;;;;;6.75;2.45;;;;;;;;;;5085750;28;20499;-75
2022/02/13 06:10:12;;;;;;;6.63;2.45;;;;;;;;;;5074014;28;20036;-75
2022/02/13 06:12:38;;;;;;;7.93;2.80;;;;;;;;;;5073299;28;20078;-75
2022/02/13 06:15:05;;;;;;;9.30;2.53;;;;;;;;;;5055880;28;20020;-75
2022/02/13 06:17:32;;;;;;;7.80;3.00;;;;;;;;;;5075005;28;20024;-75
2022/02/13 06:19:58;;;;;;;9.10;3.08;;;;;;;;;;5093644;28;20149;-75
2022/02/13 06:22:24;;;;;;;9.77;2.72;;;;;;;;;;5093874;28;20032;-75
2022/02/13 06:24:50;;;;;;;8.20;2.85;;;;;;;;;;5075715;28;20042;-75
2022/02/13 06:27:16;;;;;;;9.65;3.25;;;;;;;;;;5094093;28;20180;-75
2022/02/13 06:29:42;;;;;;;10.55;2.70;;;;;;;;;;5093639;28;20491;-75
2022/02/13 06:32:09;;;;;;;8.80;2.97;;;;;;;;;;5093405;28;20020;-75
2022/02/13 06:34:35;;;;;;;8.30;2.85;;;;;;;;;;5093276;28;20028;-75
2022/02/13 06:37:01;;;;;;;7.25;2.70;;;;;;;;;;5093728;28;20410;-75
2022/02/13 06:39:27;;;;;;;8.02;2.90;;;;;;;;;;5093555;28;20024;-75
2022/02/13 06:41:53;;;;;;;11.63;3.22;;;;;;;;;;5081500;28;20016;-75
2022/02/13 06:44:19;;;;;;;11.30;2.83;;;;;;;;;;5093658;28;20039;-75
2022/02/13 06:46:45;;;;;;;8.40;2.95;;;;;;;;;;5093260;28;20030;-75
2022/02/13 06:49:12;;;;;;;5.65;2.45;;;;;;;;;;5093371;28;20474;-75
2022/02/13 06:51:38;;;;;;;6.50;3.00;;;;;;;;;;5093564;28;20028;-75
2022/02/13 06:54:04;;;;;;;10.98;2.92;;;;;;;;;;5092920;28;20074;-75
2022/02/13 06:56:30;;;;;;;7.75;3.20;;;;;;;;;;5093303;28;20016;-75
2022/02/13 06:58:56;;;;;;;11.02;3.03;;;;;;;;;;5092886;28;20024;-75
2022/02/13 07:01:22;;;;;;;5.97;2.60;;;;;;;;;;5093148;28;20062;-75
2022/02/13 07:03:48;;;;;;;6.38;2.70;;;;;;;;;;5092640;28;20048;-75
2022/02/13 07:06:14;;;;;;;6.40;2.40;;;;;;;;;;5093043;28;20050;-75
2022/02/13 07:08:40;;;;;;;7.88;2.33;;;;;;;;;;5059485;28;20043;-75
2022/02/13 07:11:07;;;;;;;9.07;2.75;;;;;;;;;;5072928;28;20393;-75
2022/02/13 07:13:33;;;;;;;9.20;2.83;;;;;;;;;;5071587;28;20032;-75
2022/02/13 07:15:59;;;;;;;10.18;2.35;;;;;;;;;;5073242;28;20363;-75
2022/02/13 07:18:26;;;;;;;8.60;2.80;;;;;;;;;;5072605;28;20059;-75
2022/02/13 07:20:52;;;;;;;5.97;2.55;;;;;;;;;;5072805;28;20023;-75
2022/02/13 07:23:19;;;;;;;7.88;2.92;;;;;;;;;;5072293;28;20029;-75
2022/02/13 07:25:45;;;;;;;9.95;2.85;;;;;;;;;;5072398;28;20077;-75
2022/02/13 07:30:56;;;;;;;7.05;2.90;;;;;;;;;;5072752;28;20458;-75
2022/02/13 07:33:22;;;;;;;8.75;2.95;;;;;;;;;;5072170;28;20029;-75
2022/02/13 07:35:48;;;;;;;5.32;2.10;;;;;;;;;;5072540;28;20017;-75
2022/02/13 07:38:14;;;;;;;10.80;3.65;;;;;;;;;;5072247;28;20027;-75
2022/02/13 07:40:40;;;;;;;6.50;2.42;;;;;;;;;;5072620;28;20462;-75
2022/02/13 07:43:06;;;;;;;6.28;2.85;;;;;;;;;;5088309;28;20097;-75
2022/02/13 07:45:33;;;;;;;10.55;2.90;;;;;;;;;;5081286;28;20012;-75
2022/02/13 07:47:59;;;;;;;7.60;3.30;;;;;;;;;;5072225;28;20406;-75
2022/02/13 07:50:25;;;;;;;8.25;3.03;;;;;;;;;;5072351;28;20025;-75
2022/02/13 07:52:51;;;;;;;11.27;2.95;;;;;;;;;;5072187;28;20025;-75
2022/02/13 07:55:17;;;;;;;9.73;3.28;;;;;;;;;;5072242;28;20031;-75
2022/02/13 07:57:43;;;;;;;8.60;2.63;;;;;;;;;;5072352;28;20051;-75
2022/02/13 08:00:10;;;;;;;9.60;2.92;;;;;;;;;;5072055;28;20016;-75
2022/02/13 08:02:38;;;;;;;6.60;2.70;;;;;;;;;;5072262;28;20040;-75
2022/02/13 08:05:04;;;;;;;7.25;2.78;;;;;;;;;;5071467;28;20052;-75
2022/02/13 08:07:30;;;;;;;10.63;3.08;;;;;;;;;;5077692;28;20038;-75
2022/02/13 08:09:56;;;;;;;9.82;3.22;;;;;;;;;;5091971;28;20451;-75
2022/02/13 08:12:23;;;;;;;11.18;2.83;;;;;;;;;;5092225;28;20051;-75
2022/02/13 08:14:49;;;;;;;9.85;3.13;;;;;;;;;;5092081;28;20394;-75
2022/02/13 08:17:15;;;;;;;8.68;2.63;;;;;;;;;;5085426;28;20500;-75
2022/02/13 08:19:41;;;;;;;8.60;2.72;;;;;;;;;;5076231;28;20032;-75
2022/02/13 08:22:07;;;;;;;8.98;3.10;;;;;;;;;;5096165;28;20028;-75
2022/02/13 08:24:34;;;;;;;11.88;3.20;;;;;;;;;;5095770;28;20027;-75
2022/02/13 08:27:01;;;;;;;9.82;2.83;;;;;;;;;;5095880;28;20060;-75
2022/02/13 08:29:27;;;;;;;8.30;2.75;;;;;;;;;;5077718;28;20030;-75
2022/02/13 08:31:54;;;;;;;9.98;2.88;;;;;;;;;;5096151;28;20024;-75
2022/02/13 08:34:20;;;;;;;10.13;2.78;;;;;;;;;;5095524;28;20087;-75
2022/02/13 08:36:46;;;;;;;8.23;2.92;;;;;;;;;;5096180;28;20436;-75
2022/02/13 08:39:12;;;;;;;11.13;3.13;;;;;;;;;;5095466;28;20025;-75
2022/02/13 08:41:38;;;;;;;7.68;3.22;;;;;;;;;;5091572;28;20131;-75
2022/02/13 08:44:07;;;;;;;8.38;2.75;;;;;;;;;;5075179;28;20028;-75
2022/02/13 08:46:34;;;;;;;8.88;3.05;;;;;;;;;;5075701;28;20032;-75
2022/02/13 08:49:01;;;;;;;9.77;2.90;;;;;;;;;;5074792;28;20043;-75
2022/02/13 08:51:27;;;;;;;9.90;3.13;;;;;;;;;;5058093;28;20123;-75
2022/02/13 08:53:53;;;;;;;8.85;2.75;;;;;;;;;;5074958;28;20021;-75
2022/02/13 08:56:19;;;;;;;9.13;3.05;;;;;;;;;;5075661;28;20020;-75
2022/02/13 08:58:46;;;;;;;8.52;2.60;;;;;;;;;;5057250;28;20016;-75
2022/02/13 09:01:12;;;;;;;6.55;2.40;;;;;;;;;;5075142;28;20023;-75
2022/02/13 09:03:38;;;;;;;7.20;2.20;;;;;;;;;;5075149;28;20036;-75
2022/02/13 09:06:05;;;;;;;6.45;2.67;;;;;;;;;;5075283;28;20036;-75
2022/02/13 09:08:31;;;;;;;5.20;2.47;;;;;;;;;;5061026;28;20028;-75
2022/02/13 09:10:57;;;;;;;9.13;2.90;;;;;;;;;;5075052;28;20036;-75
2022/02/13 09:13:24;;;;;;;8.13;3.17;;;;;;;;;;5074765;28;20024;-75
2022/02/13 09:15:50;;;;;;;8.18;3.00;;;;;;;;;;5074548;28;20016;-75
2022/02/13 09:18:16;;;;;;;6.15;2.70;;;;;;;;;;5082282;28;20026;-75
2022/02/13 09:20:45;;;;;;;8.00;2.78;;;;;;;;;;5094864;28;20031;-76
2022/02/13 09:23:14;;;;;;;7.65;2.58;;;;;;;;;;5075598;28;20432;-75
2022/02/13 09:25:43;;;;;;;9.15;3.20;;;;;;;;;;5074601;28;20572;-75
2022/02/13 09:28:09;;;;;;;8.95;2.65;;;;;;;;;;5074722;28;20016;-75
2022/02/13 09:30:35;;;;;;;8.88;2.78;;;;;;;;;;5055230;28;20518;-75
2022/02/13 09:33:02;;;;;;;6.15;2.38;;;;;;;;;;5074139;28;20068;-73
2022/02/13 09:35:28;;;;;;;7.20;2.50;;;;;;;;;;5074046;28;20479;-73
2022/02/13 09:37:56;;;;;;;9.10;3.20;;;;;;;;;;5056148;28;20124;-73
2022/02/13 09:40:22;;;;;;;6.88;2.80;;;;;;;;;;5073929;28;20020;-73
2022/02/13 09:42:48;;;;;;;7.88;2.80;;;;;;;;;;5088032;28;20036;-73
2022/02/13 09:45:14;;;;;;;6.60;2.47;;;;;;;;;;5075846;28;20039;-73
2022/02/13 09:47:41;;;;;;;7.95;2.88;;;;;;;;;;5093946;28;20035;-73
2022/02/13 09:50:08;;;;;;;8.18;2.90;;;;;;;;;;5094068;28;20031;-73
2022/02/13 09:52:35;;;;;;;6.63;2.33;;;;;;;;;;5076092;28;20024;-73
2022/02/13 09:55:02;;;;;;;7.25;2.90;;;;;;;;;;5077309;28;20028;-73
2022/02/13 10:00:13;;;;;;;9.20;3.00;;;;;;;;;;5073801;28;20529;-73
2022/02/13 10:02:40;;;;;;;8.00;2.60;;;;;;;;;;5073923;28;20020;-73
2022/02/13 10:05:08;;;;;;;6.22;2.63;;;;;;;;;;5074542;28;20109;-73
2022/02/13 10:07:37;;;;;;;5.70;2.53;;;;;;;;;;5074966;28;20021;-73
2022/02/13 10:10:05;;;;;;;6.82;3.03;;;;;;;;;;5056919;28;20052;-73
2022/02/13 10:12:31;;;;;;;6.30;2.50;;;;;;;;;;5075047;28;20082;-73
2022/02/13 10:14:58;;;;;;;10.00;3.17;;;;;;;;;;5074855;28;20021;-73
2022/02/13 10:17:25;;;;;;;6.53;2.50;;;;;;;;;;5075017;28;20032;-73
2022/02/13 10:19:54;;;;;;;6.25;2.50;;;;;;;;;;5094685;28;20052;-73
2022/02/13 10:22:40;;;;;;;7.25;2.75;;;;;;;;;;5095214;28;20502;-73
2022/02/13 10:25:14;;;;;;;7.05;3.13;;;;;;;;;;5094863;28;20521;-73
2022/02/13 10:27:47;;;;;;;5.68;2.47;;;;;;;;;;5056985;28;20537;-73
2022/02/13 10:30:13;;;;;;;6.85;2.55;;;;;;;;;;5075124;28;20052;-73
2022/02/13 10:32:41;;;;;;;7.90;2.80;;;;;;;;;;5074904;28;20036;-73
2022/02/13 10:35:12;;;;;;;6.43;2.72;;;;;;;;;;5074534;28;20036;-73
2022/02/13 10:37:41;;;;;;;7.28;2.90;;;;;;;;;;5074682;28;20070;-73
2022/02/13 10:40:12;;;;;;;5.63;2.53;;;;;;;;;;5074590;28;20024;-73
2022/02/13 10:42:38;;;;;;;5.95;2.60;;;;;;;;;;5086760;28;20052;-73
2022/02/13 10:45:27;;;;;;;8.65;2.97;;;;;;;;;;5095028;28;20036;-73
2022/02/13 10:48:00;;;;;;;4.82;2.10;;;;;;;;;;5081513;28;20036;-73
2022/02/13 10:50:30;;;;;;;7.53;2.55;;;;;;;;;;5094536;28;20028;-73
2022/02/13 10:52:59;;;;;;;7.70;2.58;;;;;;;;;;5094658;28;20505;-73
2022/02/13 10:55:25;;;;;;;8.07;2.83;;;;;;;;;;5094483;28;20092;-73
2022/02/13 10:57:52;;;;;;;5.40;2.17;;;;;;;;;;5091340;28;20016;-73
2022/02/13 11:00:18;;;;;;;6.00;2.40;;;;;;;;;;5056323;28;20036;-72
2022/02/13 11:02:45;;;;;;;5.72;2.35;;;;;;;;;;5073991;28;20070;-72
2022/02/13 11:05:12;;;;;;;5.70;2.10;;;;;;;;;;5073783;28;20526;-72
2022/02/13 11:07:39;;;;;;;6.40;2.85;;;;;;;;;;5073581;28;20074;-72
2022/02/13 11:10:05;;;;;;;7.82;2.40;;;;;;;;;;5073955;28;20055;-72
2022/02/13 11:12:32;;;;;;;7.70;2.97;;;;;;;;;;5073804;28;20029;-72
2022/02/13 11:15:14;;;;;;;7.55;2.90;;;;;;;;;;5073653;28;20394;-72
2022/02/13 11:17:41;;;;;;;7.75;2.90;;;;;;;;;;5057578;28;20049;-72
2022/02/13 11:20:08;;;;;;;5.95;2.22;;;;;;;;;;5093917;28;20042;-72
2022/02/13 11:22:37;;;;;;;6.82;2.63;;;;;;;;;;5093953;28;20064;-72
2022/02/13 11:25:04;;;;;;;8.43;2.60;;;;;;;;;;5093794;28;20024;-72
2022/02/13 11:27:50;;;;;;;6.28;2.28;;;;;;;;;;5075792;28;20024;-72
2022/02/13 11:30:36;;;;;;;5.85;2.35;;;;;;;;;;5089421;28;20036;-72
2022/02/13 11:33:02;;;;;;;6.00;2.10;;;;;;;;;;5073296;28;20025;-72
2022/02/13 11:35:48;;;;;;;5.75;2.47;;;;;;;;;;5073428;28;20575;-72
2022/02/13 11:38:34;;;;;;;5.97;2.28;;;;;;;;;;5055099;28;20444;-72
2022/02/13 11:41:00;;;;;;;5.90;2.25;;;;;;;;;;5055502;28;20490;-72
2022/02/13 11:43:44;;;;;;;6.30;2.60;;;;;;;;;;5073450;28;20044;-72
2022/02/13 11:46:14;;;;;;;8.52;2.65;;;;;;;;;;5073840;28;20036;-72
2022/02/13 11:48:43;;;;;;;6.75;2.45;;;;;;;;;;5073295;28;20064;-73
2022/02/13 11:51:10;;;;;;;11.43;2.83;;;;;;;;;;5073482;28;20032;-72
2022/02/13 11:53:41;;;;;;;5.70;2.30;;;;;;;;;;5074658;28;20094;-72
2022/02/13 11:56:19;;;;;;;6.10;2.08;;;;;;;;;;5078128;28;20074;-72
2022/02/13 11:58:45;;;;;;;4.40;2.05;;;;;;;;;;5058983;28;20513;-72
2022/02/13 12:01:30;;;;;;;4.63;2.10;;;;;;;;;;5077706;28;20031;-72
2022/02/13 12:03:56;;;;;;;6.75;2.42;;;;;;;;;;5076851;28;20044;-72
2022/02/13 12:06:22;;;;;;;5.95;2.17;;;;;;;;;;5077928;28;20028;-72
2022/02/13 12:08:48;;;;;;;6.07;2.55;;;;;;;;;;5077083;28;20397;-72
2022/02/13 12:11:16;;;;;;;7.32;2.33;;;;;;;;;;5077588;28;20024;-72
2022/02/13 12:13:44;;;;;;;5.47;2.38;;;;;;;;;;5077060;28;20017;-72
2022/02/13 12:16:11;;;;;;;5.85;2.13;;;;;;;;;;5059573;28;20441;-72
2022/02/13 12:18:37;;;;;;;5.90;2.67;;;;;;;;;;5087025;28;20382;-72
2022/02/13 12:21:05;;;;;;;5.80;2.03;;;;;;;;;;5097409;28;20055;-73
2022/02/13 12:23:31;;;;;;;8.50;2.60;;;;;;;;;;5097117;28;20024;-73
2022/02/13 12:25:58;;;;;;;6.38;2.28;;;;;;;;;;5097444;28;20028;-73
2022/02/13 12:28:37;;;;;;;7.13;2.15;;;;;;;;;;5097121;28;20024;-73
2022/02/13 12:31:04;;;;;;;4.78;1.77;;;;;;;;;;5097908;28;20028;-73
2022/02/13 12:33:31;;;;;;;5.70;2.33;;;;;;;;;;5097366;28;20016;-73
2022/02/13 12:35:58;;;;;;;6.80;2.47;;;;;;;;;;5082454;28;20024;-73
2022/02/13 12:38:25;;;;;;;6.65;2.65;;;;;;;;;;5076509;28;20099;-73
2022/02/13 12:40:54;;;;;;;6.15;2.30;;;;;;;;;;5076679;28;20025;-73
2022/02/13 12:43:22;;;;;;;5.40;2.58;;;;;;;;;;5076881;28;20097;-73
2022/02/13 12:48:52;;;;;;;8.70;2.20;;;;;;;;;;5076899;28;20412;-73
2022/02/13 12:51:28;;;;;;;4.75;2.10;;;;;;;;;;5076387;28;20029;-73
2022/02/13 12:53:56;;;;;;;8.13;2.42;;;;;;;;;;5075861;28;20046;-73
2022/02/13 12:56:25;;;;;;;4.82;2.15;;;;;;;;;;5076740;28;20035;-73
2022/02/13 13:01:56;;;;;;;6.28;2.33;;;;;;;;;;5076025;28;20032;-74
2022/02/13 13:04:25;;;;;;;5.50;2.28;;;;;;;;;;5074423;28;20110;-76
2022/02/13 13:06:51;;;;;;;7.80;2.80;;;;;;;;;;5056363;28;20071;-76
2022/02/13 13:09:21;;;;;;;7.50;2.63;;;;;;;;;;5095217;28;20031;-76
2022/02/13 13:11:47;;;;;;;6.60;2.20;;;;;;;;;;5095444;28;20035;-76
2022/02/13 13:14:15;;;;;;;4.97;2.40;;;;;;;;;;5094923;28;20077;-76
2022/02/13 13:16:42;;;;;;;5.82;2.33;;;;;;;;;;5076949;28;20052;-76
2022/02/13 13:19:08;;;;;;;7.40;2.65;;;;;;;;;;5080174;28;20021;-76
2022/02/13 13:21:43;;;;;;;5.97;2.78;;;;;;;;;;5074770;28;20099;-76
2022/02/13 13:24:09;;;;;;;7.45;2.47;;;;;;;;;;5056605;28;20078;-76
2022/02/13 13:26:48;;;;;;;7.25;2.47;;;;;;;;;;5074481;28;20025;-76
2022/02/13 13:29:24;;;;;;;7.07;2.00;;;;;;;;;;5074507;28;20402;-76
2022/02/13 13:32:09;;;;;;;6.82;2.35;;;;;;;;;;5074749;28;20040;-76
2022/02/13 13:34:44;;;;;;;5.22;2.50;;;;;;;;;;5056219;28;20048;-76
2022/02/13 13:37:30;;;;;;;6.45;2.47;;;;;;;;;;5056518;28;20490;-75
2022/02/13 13:40:02;;;;;;;5.78;2.72;;;;;;;;;;5074148;28;20028;-76
2022/02/13 13:42:32;;;;;;;8.07;2.65;;;;;;;;;;5085505;28;20490;-76
2022/02/13 13:45:09;;;;;;;6.40;2.72;;;;;;;;;;5094424;28;20039;-75
2022/02/13 13:47:35;;;;;;;9.43;2.92;;;;;;;;;;5094417;28;20039;-75
2022/02/13 13:50:02;;;;;;;8.38;3.10;;;;;;;;;;5094331;28;20024;-75
2022/02/13 13:52:28;;;;;;;7.90;3.10;;;;;;;;;;5076421;28;20217;-75
2022/02/13 13:54:54;;;;;;;11.63;3.63;;;;;;;;;;5094217;28;20031;-75
2022/02/13 13:57:20;;;;;;;7.93;3.10;;;;;;;;;;5094527;28;20233;-75
2022/02/13 13:59:46;;;;;;;7.68;3.53;;;;;;;;;;5094349;28;20029;-75
2022/02/13 14:02:28;;;;;;;8.70;3.30;;;;;;;;;;5094476;28;20308;-75
2022/02/13 14:04:54;;;;;;;9.07;3.30;;;;;;;;;;5094076;28;20048;-75
2022/02/13 14:07:20;;;;;;;7.10;3.30;;;;;;;;;;5090533;28;20295;-75
2022/02/13 14:09:47;;;;;;;7.80;3.78;;;;;;;;;;5073979;28;20035;-75
2022/02/13 14:12:14;;;;;;;7.53;3.35;;;;;;;;;;5073185;28;20024;-75
2022/02/13 14:14:41;;;;;;;10.90;3.88;;;;;;;;;;5073652;28;20021;-75
2022/02/13 14:17:07;;;;;;;7.28;3.40;;;;;;;;;;5073094;28;20020;-75
2022/02/13 14:19:33;;;;;;;8.98;3.42;;;;;;;;;;5073191;28;20020;-75
2022/02/13 14:22:00;;;;;;;11.68;3.80;;;;;;;;;;5073886;28;20044;-75
2022/02/13 14:24:26;;;;;;;8.38;3.75;;;;;;;;;;5073128;28;20036;-75
2022/02/13 14:26:52;;;;;;;9.15;3.58;;;;;;;;;;5073376;28;20025;-75
2022/02/13 14:29:18;;;;;;;9.73;4.07;;;;;;;;;;5073078;28;20059;-75
2022/02/13 14:31:44;;;;;;;8.88;3.42;;;;;;;;;;5074080;28;20044;-75
2022/02/13 14:34:16;;;;;;;7.70;3.28;;;;;;;;;;5073504;28;20162;-75
2022/02/13 14:36:42;;;;;;;10.70;3.45;;;;;;;;;;5073472;28;20020;-75
2022/02/13 14:39:08;;;;;;;11.43;3.80;;;;;;;;;;5073031;28;20021;-75
2022/02/13 14:41:36;;;;;;;10.00;3.22;;;;;;;;;;5076794;28;20089;-75
2022/02/13 14:44:02;;;;;;;8.27;3.40;;;;;;;;;;5067040;28;20482;-75
2022/02/13 14:46:28;;;;;;;11.35;3.85;;;;;;;;;;5073486;28;20497;-75
2022/02/13 14:48:54;;;;;;;8.73;3.53;;;;;;;;;;5072804;28;20039;-75
2022/02/13 14:51:20;;;;;;;8.02;3.58;;;;;;;;;;5072681;28;20048;-75
2022/02/13 14:53:46;;;;;;;10.07;3.97;;;;;;;;;;5072784;28;20040;-75
2022/02/13 14:56:12;;;;;;;8.90;3.17;;;;;;;;;;5073321;28;20031;-75